Terminal Aerodrome Forecast
Issued by NWS

Home | Current Version | Previous Version | Text Only | Print | Product List | Glossary On
Versions: 1 2 3 4 5 6 7 8 9 10 11 12 13 14 15 16 17 18 19 20 21 22
000
FTUS46 KLOX 310244 AAA
TAFSBA
TAF AMD
KSBA 310244Z 3103/3124 25009KT P6SM FEW012
     FM310400 VRB03KT P6SM SCT004
      TEMPO 3104/3106 4SM BR BKN004
     FM310600 11003KT 1/2SM FG OVC002
     FM311400 14005KT 5SM BR OVC005
     FM311700 17006KT P6SM SCT012
     FM312200 24009KT P6SM FEW015=

USA.gov is the U.S. government's official web portal to all federal, state and local government web resources and services.